createdAt,value
2023-01-13T00:01:52.442Z,161404.66
2023-01-13T00:04:56.566Z,161399.41
2023-01-13T00:08:00.167Z,161387.66
2023-01-13T00:11:04.093Z,161394.19
2023-01-13T00:14:08.009Z,161374.59
2023-01-13T00:17:12.180Z,161365.41
2023-01-13T00:20:16.747Z,161386.34
2023-01-13T00:23:20.752Z,161373.25
2023-01-13T00:26:27.483Z,161388.94
2023-01-13T00:29:31.249Z,161399.41
2023-01-13T00:32:35.404Z,161388.94
2023-01-13T00:35:39.854Z,161395.53
2023-01-13T00:38:44.551Z,161383.72
2023-01-13T00:42:07.553Z,161379.78
2023-01-13T00:45:11.517Z,161409.88
2023-01-13T00:48:15.820Z,161396.78
2023-01-13T00:51:21.700Z,161381.06
2023-01-13T00:54:25.520Z,161386.34
2023-01-13T00:57:29.642Z,161385.00
2023-01-13T01:00:33.710Z,161399.41
2023-01-13T01:03:38.249Z,161392.88
2023-01-13T01:06:42.199Z,161399.41
2023-01-13T01:09:46.504Z,161402.00
2023-01-13T01:12:50.968Z,161411.19
2023-01-13T01:15:54.811Z,161422.94
2023-01-13T01:18:59.945Z,161403.34
2023-01-13T01:22:03.989Z,161398.06
2023-01-13T01:25:08.798Z,161395.53
2023-01-13T01:28:13.145Z,161402.00
2023-01-13T01:31:19.993Z,161403.34
2023-01-13T01:34:24.333Z,161399.41
2023-01-13T01:37:28.195Z,161404.66
2023-01-13T01:40:32.465Z,161399.41
2023-01-13T01:44:06.788Z,161403.34
2023-01-13T01:47:12.981Z,161421.63
2023-01-13T01:50:18.499Z,161403.34
2023-01-13T01:53:25.792Z,161382.41
2023-01-13T01:56:30.243Z,161419.00
2023-01-13T01:59:36.065Z,161422.94
2023-01-13T02:02:43.489Z,161421.63
2023-01-13T02:05:47.660Z,161412.53
2023-01-13T02:08:52.926Z,161436.06
2023-01-13T02:12:15.727Z,161419.00
2023-01-13T02:15:35.451Z,161430.81
2023-01-13T02:19:08.571Z,161413.81
2023-01-13T02:22:27.352Z,161433.47
2023-01-13T02:26:05.290Z,161443.88
2023-01-13T02:29:55.997Z,161433.47
2023-01-13T02:33:38.223Z,161439.94
2023-01-13T02:37:09.390Z,161424.28
2023-01-13T02:40:17.193Z,161436.06
2023-01-13T02:43:49.167Z,161426.88
2023-01-13T02:47:22.562Z,161439.94
2023-01-13T02:50:37.343Z,161450.41
2023-01-13T02:53:59.570Z,161422.94
2023-01-13T02:57:08.265Z,161412.53
2023-01-13T03:00:13.913Z,161434.75
2023-01-13T03:03:18.044Z,161424.28
2023-01-13T03:06:36.730Z,161424.28
2023-01-13T03:09:49.980Z,161451.75
2023-01-13T03:13:07.578Z,161451.75
2023-01-13T03:16:56.457Z,161454.41
2023-01-13T03:20:15.567Z,161457.00
2023-01-13T03:23:29.987Z,161475.34
2023-01-13T03:26:40.323Z,161464.81
2023-01-13T03:29:54.008Z,161462.22
2023-01-13T03:33:25.782Z,161464.81
2023-01-13T03:36:31.408Z,161475.34
2023-01-13T03:39:39.796Z,161457.00
2023-01-13T03:43:08.059Z,161476.63
2023-01-13T03:46:26.668Z,161474.00
2023-01-13T03:49:37.769Z,161463.50
2023-01-13T03:52:50.619Z,161481.84
2023-01-13T03:56:02.692Z,161466.16
2023-01-13T03:59:11.703Z,161455.69
2023-01-13T04:02:43.581Z,161471.38
2023-01-13T04:05:52.348Z,161454.41
2023-01-13T04:09:03.065Z,161455.69
2023-01-13T04:12:56.734Z,161437.34
2023-01-13T04:16:01.072Z,161432.13
2023-01-13T04:19:06.457Z,161420.34
2023-01-13T04:22:10.473Z,161422.94
2023-01-13T04:25:14.761Z,161430.81
2023-01-13T04:28:19.231Z,161425.53
2023-01-13T04:31:23.217Z,161441.28
2023-01-13T04:34:28.446Z,161432.13
2023-01-13T04:37:33.280Z,161432.13
2023-01-13T04:40:37.639Z,161424.28
2023-01-13T04:43:41.605Z,161419.00
2023-01-13T04:46:45.716Z,161425.53
2023-01-13T04:49:50.017Z,161421.63
2023-01-13T04:52:54.710Z,161416.47
2023-01-13T04:55:58.913Z,161429.53
2023-01-13T04:59:03.129Z,161426.88
2023-01-13T05:02:09.005Z,161413.81
2023-01-13T05:05:13.265Z,161424.28
2023-01-13T05:08:17.584Z,161433.47
2023-01-13T05:11:40.260Z,161430.81
2023-01-13T05:15:02.931Z,161430.81
2023-01-13T05:18:07.187Z,161436.06
2023-01-13T05:21:31.273Z,161434.75
2023-01-13T05:24:53.350Z,161433.47
2023-01-13T05:27:59.273Z,161424.28
2023-01-13T05:31:03.217Z,161430.81
2023-01-13T05:34:07.029Z,161420.34
2023-01-13T05:37:13.139Z,161416.47
2023-01-13T05:40:37.339Z,161416.47
2023-01-13T05:43:41.371Z,161409.88
2023-01-13T05:46:45.596Z,161394.19
2023-01-13T05:49:49.446Z,161415.13
2023-01-13T05:52:53.460Z,161411.19
2023-01-13T05:55:57.997Z,161415.13
2023-01-13T05:59:01.935Z,161416.47
2023-01-13T06:02:05.614Z,161416.47
2023-01-13T06:05:09.589Z,161430.81
2023-01-13T06:08:14.685Z,161421.63
2023-01-13T06:11:18.899Z,161421.63
2023-01-13T06:14:23.186Z,161442.56
2023-01-13T06:17:27.025Z,161429.53
2023-01-13T06:20:31.953Z,161446.50
2023-01-13T06:23:38.520Z,161434.75
2023-01-13T06:26:42.786Z,161433.47
2023-01-13T06:29:47.364Z,161419.00
2023-01-13T06:32:57.313Z,161416.47
2023-01-13T06:36:06.349Z,161421.63
2023-01-13T06:39:13.852Z,161433.47
2023-01-13T06:42:36.426Z,161417.69
2023-01-13T06:45:42.984Z,161416.47
2023-01-13T06:48:46.817Z,161450.41
2023-01-13T06:51:50.571Z,161422.94
2023-01-13T06:54:54.660Z,161415.13
2023-01-13T06:57:58.851Z,161292.13
2023-01-13T07:01:03.282Z,161169.16
2023-01-13T07:04:07.395Z,161109.06
2023-01-13T07:07:12.389Z,161073.69
2023-01-13T07:10:22.313Z,161030.59
2023-01-13T07:13:44.676Z,161033.19
2023-01-13T07:16:48.858Z,161031.88
2023-01-13T07:19:53.189Z,161008.34
2023-01-13T07:22:57.863Z,161009.66
2023-01-13T07:26:02.035Z,161009.66
2023-01-13T07:29:06.215Z,161012.28
2023-01-13T07:32:10.359Z,161004.41
2023-01-13T07:35:14.779Z,161013.59
2023-01-13T07:38:19.021Z,160984.84
2023-01-13T07:41:41.993Z,160999.16
2023-01-13T07:44:46.209Z,160987.44
2023-01-13T07:47:52.632Z,160994.00
2023-01-13T07:50:56.542Z,160999.16
2023-01-13T07:54:00.816Z,160988.75
2023-01-13T07:57:05.034Z,160997.94
2023-01-13T08:00:12.062Z,161007.00
2023-01-13T08:03:17.479Z,160997.94
2023-01-13T08:06:21.908Z,161018.84
2023-01-13T08:09:25.964Z,161024.00
2023-01-13T08:12:52.198Z,160996.59
2023-01-13T08:16:05.957Z,161003.09
2023-01-13T08:19:10.025Z,160997.94
2023-01-13T08:22:14.200Z,160991.38
2023-01-13T08:25:18.238Z,160992.69
2023-01-13T08:28:24.101Z,161008.34
2023-01-13T08:31:28.423Z,161004.41
2023-01-13T08:34:32.853Z,161007.00
2023-01-13T08:37:36.830Z,161022.72
2023-01-13T08:40:40.940Z,161016.19
2023-01-13T08:43:45.020Z,161005.75
2023-01-13T08:46:49.695Z,161004.41
2023-01-13T08:49:53.928Z,160982.19
2023-01-13T08:52:58.108Z,160975.66
2023-01-13T08:56:02.400Z,160960.00
2023-01-13T08:59:09.761Z,160954.75
2023-01-13T09:02:19.512Z,160944.34
2023-01-13T09:05:23.539Z,160978.25
2023-01-13T09:08:27.689Z,160978.25
2023-01-13T09:11:55.718Z,160996.59
2023-01-13T09:15:00.019Z,160984.84
2023-01-13T09:18:04.375Z,160999.16
2023-01-13T09:21:12.461Z,160987.44
2023-01-13T09:24:16.387Z,161010.94
2023-01-13T09:27:20.950Z,160982.19
2023-01-13T09:30:24.918Z,161072.41
2023-01-13T09:33:58.525Z,161102.47
2023-01-13T09:37:04.065Z,161056.72
2023-01-13T09:40:17.335Z,161051.50
2023-01-13T09:43:44.582Z,161081.56
2023-01-13T09:46:56.690Z,161076.34
2023-01-13T09:50:28.635Z,161077.63
2023-01-13T09:53:37.587Z,161069.78
2023-01-13T09:56:42.217Z,161054.09
2023-01-13T09:59:46.480Z,161059.38
2023-01-13T10:03:18.260Z,161069.78
2023-01-13T10:06:28.158Z,161060.63
2023-01-13T10:09:53.112Z,161088.13
2023-01-13T10:13:15.350Z,161120.78
2023-01-13T10:16:44.696Z,161156.09
2023-01-13T10:19:55.923Z,161156.09
2023-01-13T10:23:38.923Z,161127.31
2023-01-13T10:27:02.101Z,161127.31
2023-01-13T10:30:19.474Z,161154.84
2023-01-13T10:33:28.339Z,161174.44
2023-01-13T10:36:32.341Z,161186.16
2023-01-13T10:39:56.632Z,161187.50
2023-01-13T10:43:08.287Z,161183.56
2023-01-13T10:46:17.936Z,161165.25
2023-01-13T10:49:32.879Z,161171.81
2023-01-13T10:52:42.919Z,161128.66
2023-01-13T10:55:59.739Z,161114.31
2023-01-13T10:59:26.928Z,161143.03
2023-01-13T11:02:36.058Z,161174.44
2023-01-13T11:05:40.580Z,161139.09
2023-01-13T11:08:47.323Z,161143.03
2023-01-13T11:11:55.786Z,161148.25
2023-01-13T11:15:04.179Z,161106.41
2023-01-13T11:18:18.020Z,161111.66
2023-01-13T11:21:28.165Z,161122.13
2023-01-13T11:24:44.928Z,161106.41
2023-01-13T11:27:57.694Z,161131.25
2023-01-13T11:31:09.695Z,161128.66
2023-01-13T11:34:17.823Z,161182.28
2023-01-13T11:37:30.603Z,161207.09
2023-01-13T11:40:38.797Z,161211.03
2023-01-13T11:43:52.702Z,161231.94
2023-01-13T11:46:56.477Z,161225.47
2023-01-13T11:50:00.777Z,161260.75
2023-01-13T11:53:23.241Z,161268.59
2023-01-13T11:56:58.788Z,161286.91
2023-01-13T12:00:17.315Z,161300.00
2023-01-13T12:03:31.019Z,161317.00
2023-01-13T12:06:38.577Z,161323.53
2023-01-13T12:09:48.051Z,161337.91
2023-01-13T12:13:11.097Z,161323.53
2023-01-13T12:16:23.612Z,161339.19
2023-01-13T12:19:30.759Z,161371.94
2023-01-13T12:22:36.988Z,161396.78
2023-01-13T12:25:45.505Z,161415.13
2023-01-13T12:29:14.778Z,161424.28
2023-01-13T12:32:25.986Z,161430.81
2023-01-13T12:35:41.741Z,161462.22
2023-01-13T12:38:49.723Z,161471.38
2023-01-13T12:42:24.423Z,161472.69
2023-01-13T12:45:30.629Z,161476.63
2023-01-13T12:48:55.199Z,161477.91
2023-01-13T12:52:15.437Z,161467.44
2023-01-13T12:55:21.481Z,161477.91
2023-01-13T12:58:28.443Z,161480.50
2023-01-13T13:01:37.224Z,161515.91
2023-01-13T13:04:48.127Z,161518.47
2023-01-13T13:08:01.211Z,161548.59
2023-01-13T13:11:33.158Z,161552.53
2023-01-13T13:14:37.329Z,161545.94
2023-01-13T13:17:42.304Z,161522.38
2023-01-13T13:21:04.681Z,161521.06
2023-01-13T13:24:11.028Z,161506.72
2023-01-13T13:27:27.851Z,161509.31
2023-01-13T13:30:37.406Z,161493.63
2023-01-13T13:33:56.779Z,161462.22
2023-01-13T13:37:22.675Z,161419.00
2023-01-13T13:40:47.815Z,161381.06
2023-01-13T13:44:10.425Z,161362.78
2023-01-13T13:47:14.935Z,161334.00
2023-01-13T13:50:20.833Z,161334.00
2023-01-13T13:53:32.193Z,161318.25
2023-01-13T13:56:42.064Z,161303.94
2023-01-13T13:59:53.861Z,161288.25
2023-01-13T14:03:05.824Z,161281.66
2023-01-13T14:06:22.601Z,161264.66
2023-01-13T14:09:28.855Z,161246.38
2023-01-13T14:12:37.980Z,161243.72
2023-01-13T14:15:42.457Z,161218.88
2023-01-13T14:18:48.146Z,161187.50
2023-01-13T14:21:53.594Z,161195.34
2023-01-13T14:24:58.504Z,161177.03
2023-01-13T14:28:30.097Z,161148.25
2023-01-13T14:31:34.452Z,161146.97
2023-01-13T14:34:38.872Z,161135.22
2023-01-13T14:37:44.084Z,161112.97
2023-01-13T14:40:48.168Z,161102.47
2023-01-13T14:43:56.321Z,161081.56
2023-01-13T14:47:16.072Z,161077.63
2023-01-13T14:50:28.103Z,161055.44
2023-01-13T14:53:43.657Z,161046.25
2023-01-13T14:56:53.809Z,161021.47
2023-01-13T14:59:58.140Z,161007.00
2023-01-13T15:03:08.041Z,161020.13
2023-01-13T15:06:24.351Z,160975.66
2023-01-13T15:09:34.770Z,160963.91
2023-01-13T15:12:40.644Z,160975.66
2023-01-13T15:15:50.880Z,160948.25
2023-01-13T15:18:56.412Z,160949.53
2023-01-13T15:22:00.419Z,160941.69
2023-01-13T15:25:05.099Z,160926.03
2023-01-13T15:28:21.962Z,160909.00
2023-01-13T15:31:28.970Z,160893.34
2023-01-13T15:34:33.511Z,160899.88
2023-01-13T15:37:37.874Z,160889.41
2023-01-13T15:40:43.210Z,160876.31
2023-01-13T15:44:05.843Z,160884.16
2023-01-13T15:47:10.270Z,160894.66
2023-01-13T15:50:16.469Z,160867.16
2023-01-13T15:53:20.430Z,160861.91
2023-01-13T15:56:26.634Z,160876.31
2023-01-13T15:59:30.481Z,160871.09
2023-01-13T16:02:34.545Z,160868.50
2023-01-13T16:05:39.979Z,160886.75
2023-01-13T16:08:44.045Z,160880.22
2023-01-13T16:11:48.308Z,160876.31
2023-01-13T16:14:51.861Z,160876.31
2023-01-13T16:17:58.155Z,160884.16
2023-01-13T16:21:02.035Z,160895.94
2023-01-13T16:24:06.314Z,160928.56
2023-01-13T16:27:16.648Z,160931.22
2023-01-13T16:30:24.579Z,160923.41
2023-01-13T16:33:28.478Z,160926.03
2023-01-13T16:36:35.365Z,160916.84
2023-01-13T16:39:39.523Z,160943.00
2023-01-13T16:42:43.552Z,160939.09
2023-01-13T16:45:47.288Z,160933.81
2023-01-13T16:48:53.055Z,160944.34
2023-01-13T16:51:57.051Z,160954.75
2023-01-13T16:55:01.219Z,160957.34
2023-01-13T16:58:06.128Z,160978.25
2023-01-13T17:01:23.363Z,160965.25
2023-01-13T17:04:27.665Z,160963.91
2023-01-13T17:07:33.524Z,160960.00
2023-01-13T17:10:37.734Z,160950.81
2023-01-13T17:13:42.049Z,160969.16
2023-01-13T17:16:47.036Z,160982.19
2023-01-13T17:19:52.114Z,160976.97
2023-01-13T17:22:58.518Z,160978.25
2023-01-13T17:26:03.446Z,160988.75
2023-01-13T17:29:13.006Z,160991.38
2023-01-13T17:32:19.116Z,160999.16
2023-01-13T17:35:25.073Z,160994.00
2023-01-13T17:38:29.408Z,161020.13
2023-01-13T17:41:33.403Z,160999.16
2023-01-13T17:44:37.526Z,161007.00
2023-01-13T17:47:41.723Z,160990.09
2023-01-13T17:50:51.208Z,160975.66
2023-01-13T17:53:55.357Z,160990.09
2023-01-13T17:56:59.727Z,160994.00
2023-01-13T18:00:05.068Z,160988.75
2023-01-13T18:03:11.392Z,160978.25
2023-01-13T18:06:21.823Z,160978.25
2023-01-13T18:09:26.722Z,160953.41
2023-01-13T18:12:30.750Z,160939.09
2023-01-13T18:15:35.543Z,160954.75
2023-01-13T18:18:41.947Z,160967.84
2023-01-13T18:22:05.657Z,160969.16
2023-01-13T18:25:30.955Z,160962.59
2023-01-13T18:28:35.030Z,160958.66
2023-01-13T18:31:39.360Z,160962.59
2023-01-13T18:34:43.690Z,160957.34
2023-01-13T18:37:47.738Z,160915.56
2023-01-13T18:40:51.937Z,160898.59
2023-01-13T18:43:56.257Z,160892.00
2023-01-13T18:47:00.638Z,160877.63
2023-01-13T18:50:05.265Z,160869.81
2023-01-13T18:53:09.358Z,160855.38
2023-01-13T18:56:14.240Z,160838.41
2023-01-13T18:59:18.619Z,160847.59
2023-01-13T19:02:23.551Z,160843.66
2023-01-13T19:05:27.477Z,160845.00
2023-01-13T19:08:33.517Z,160834.50
2023-01-13T19:11:37.552Z,160816.19
2023-01-13T19:14:42.160Z,160845.00
2023-01-13T19:17:46.746Z,160847.59
2023-01-13T19:20:51.133Z,160846.25
2023-01-13T19:23:56.336Z,160809.66
2023-01-13T19:27:00.221Z,160783.50
2023-01-13T19:30:04.954Z,160811.00
2023-01-13T19:33:09.232Z,160813.59
2023-01-13T19:36:13.582Z,160822.75
2023-01-13T19:39:17.617Z,160839.75
2023-01-13T19:42:40.398Z,160843.66
2023-01-13T19:45:44.881Z,160855.38
2023-01-13T19:48:49.026Z,160851.47
2023-01-13T19:51:53.312Z,160881.56
2023-01-13T19:54:57.492Z,160880.22
2023-01-13T19:58:02.159Z,160861.91
2023-01-13T20:01:09.806Z,160880.22
2023-01-13T20:04:14.447Z,160880.22
2023-01-13T20:07:18.610Z,160881.56
2023-01-13T20:10:24.519Z,160851.47
2023-01-13T20:13:28.454Z,160877.63
2023-01-13T20:16:33.772Z,160861.91
2023-01-13T20:19:37.635Z,160850.16
2023-01-13T20:22:42.099Z,160858.00
2023-01-13T20:25:46.473Z,160863.25
2023-01-13T20:28:50.758Z,160852.78
2023-01-13T20:31:55.439Z,160858.00
2023-01-13T20:34:59.402Z,160847.59
2023-01-13T20:38:03.555Z,160850.16
2023-01-13T20:41:26.569Z,160861.91
2023-01-13T20:44:30.992Z,160864.56
2023-01-13T20:47:35.066Z,160855.38
2023-01-13T20:50:39.050Z,160847.59
2023-01-13T20:53:42.752Z,160845.00
2023-01-13T20:56:46.718Z,160811.00
2023-01-13T20:59:50.703Z,160796.59
2023-01-13T21:02:54.880Z,160803.13
2023-01-13T21:05:58.878Z,160776.97
2023-01-13T21:09:02.959Z,160779.56
2023-01-13T21:12:43.117Z,160766.53
2023-01-13T21:15:48.333Z,160769.19
2023-01-13T21:19:07.898Z,160765.25
2023-01-13T21:22:11.862Z,160746.91
2023-01-13T21:25:17.588Z,160727.34
2023-01-13T21:28:21.584Z,160746.91
2023-01-13T21:31:27.413Z,160726.00
2023-01-13T21:34:32.874Z,160731.25
2023-01-13T21:37:38.243Z,160714.28
2023-01-13T21:40:41.931Z,160712.97
2023-01-13T21:44:04.717Z,160716.88
2023-01-13T21:47:38.159Z,160690.78
2023-01-13T21:50:42.404Z,160685.53
2023-01-13T21:53:46.609Z,160688.13
2023-01-13T21:56:50.793Z,160685.53
2023-01-13T21:59:54.816Z,160682.94
2023-01-13T22:03:00.017Z,160667.19
2023-01-13T22:06:04.318Z,160639.78
2023-01-13T22:09:08.961Z,160664.59
2023-01-13T22:12:13.175Z,160650.28
2023-01-13T22:15:18.033Z,160642.38
2023-01-13T22:18:22.041Z,160635.84
2023-01-13T22:21:26.183Z,160614.97
2023-01-13T22:24:30.247Z,160620.22
2023-01-13T22:27:40.428Z,160618.88
2023-01-13T22:30:44.467Z,160622.81
2023-01-13T22:33:48.508Z,160598.00
2023-01-13T22:36:52.510Z,160604.56
2023-01-13T22:39:56.511Z,160601.91
2023-01-13T22:43:00.790Z,160616.28
2023-01-13T22:46:08.979Z,160605.84
2023-01-13T22:49:14.769Z,160590.16
2023-01-13T22:52:19.086Z,160598.00
2023-01-13T22:55:23.654Z,160578.44
2023-01-13T22:58:28.447Z,160557.47
2023-01-13T23:01:34.459Z,160556.16
2023-01-13T23:04:38.788Z,160544.44
2023-01-13T23:07:42.738Z,160549.63
2023-01-13T23:10:46.988Z,160547.03
2023-01-13T23:13:56.680Z,160531.34
2023-01-13T23:17:00.829Z,160553.56
2023-01-13T23:20:05.057Z,160552.25
2023-01-13T23:23:09.001Z,160549.63
2023-01-13T23:26:13.479Z,160549.63
2023-01-13T23:29:18.240Z,160524.84
2023-01-13T23:32:22.312Z,160518.31
2023-01-13T23:35:26.508Z,160520.91
2023-01-13T23:38:30.983Z,160507.88
2023-01-13T23:41:34.967Z,160518.31
2023-01-13T23:44:38.839Z,160507.88
2023-01-13T23:47:43.300Z,160518.31
2023-01-13T23:50:57.919Z,160497.38
2023-01-13T23:54:02.144Z,160486.97
2023-01-13T23:57:06.011Z,160497.38
